sensor_id;sensor_type;location;lat;lon;timestamp;P1;durP1;ratioP1;P2;durP2;ratioP2
65799;SDS011;52544;48.116;11.660;2023-08-24T00:01:36;13.35;;;8.77;;
65799;SDS011;52544;48.116;11.660;2023-08-24T00:04:01;14.05;;;8.23;;
65799;SDS011;52544;48.116;11.660;2023-08-24T00:06:27;11.05;;;8.50;;
65799;SDS011;52544;48.116;11.660;2023-08-24T00:08:52;10.30;;;8.45;;
65799;SDS011;52544;48.116;11.660;2023-08-24T00:11:18;11.05;;;8.48;;
65799;SDS011;52544;48.116;11.660;2023-08-24T00:13:43;13.38;;;8.43;;
65799;SDS011;52544;48.116;11.660;2023-08-24T00:16:14;11.10;;;8.65;;
65799;SDS011;52544;48.116;11.660;2023-08-24T00:18:44;11.63;;;8.43;;
65799;SDS011;52544;48.116;11.660;2023-08-24T00:21:10;12.57;;;9.13;;
65799;SDS011;52544;48.116;11.660;2023-08-24T00:23:36;13.68;;;8.10;;
65799;SDS011;52544;48.116;11.660;2023-08-24T00:26:01;11.50;;;8.90;;
65799;SDS011;52544;48.116;11.660;2023-08-24T00:28:26;14.90;;;9.18;;
65799;SDS011;52544;48.116;11.660;2023-08-24T00:30:52;17.98;;;9.18;;
65799;SDS011;52544;48.116;11.660;2023-08-24T00:33:17;14.32;;;8.95;;
65799;SDS011;52544;48.116;11.660;2023-08-24T00:35:43;11.85;;;8.77;;
65799;SDS011;52544;48.116;11.660;2023-08-24T00:38:08;11.65;;;9.18;;
65799;SDS011;52544;48.116;11.660;2023-08-24T00:40:34;11.10;;;9.25;;
65799;SDS011;52544;48.116;11.660;2023-08-24T00:42:59;11.88;;;8.55;;
65799;SDS011;52544;48.116;11.660;2023-08-24T00:45:25;12.30;;;9.25;;
65799;SDS011;52544;48.116;11.660;2023-08-24T00:47:50;13.43;;;9.32;;
65799;SDS011;52544;48.116;11.660;2023-08-24T00:50:17;14.20;;;8.85;;
65799;SDS011;52544;48.116;11.660;2023-08-24T00:52:43;12.02;;;8.93;;
65799;SDS011;52544;48.116;11.660;2023-08-24T00:55:10;10.77;;;8.80;;
65799;SDS011;52544;48.116;11.660;2023-08-24T00:57:35;12.07;;;9.07;;
65799;SDS011;52544;48.116;11.660;2023-08-24T01:00:03;16.33;;;9.23;;
65799;SDS011;52544;48.116;11.660;2023-08-24T01:02:36;11.90;;;8.98;;
65799;SDS011;52544;48.116;11.660;2023-08-24T01:05:03;12.93;;;8.85;;
65799;SDS011;52544;48.116;11.660;2023-08-24T01:07:32;12.38;;;9.30;;
65799;SDS011;52544;48.116;11.660;2023-08-24T01:10:00;12.40;;;9.70;;
65799;SDS011;52544;48.116;11.660;2023-08-24T01:12:28;12.77;;;9.27;;
65799;SDS011;52544;48.116;11.660;2023-08-24T01:15:05;12.35;;;8.77;;
65799;SDS011;52544;48.116;11.660;2023-08-24T01:17:37;12.27;;;8.90;;
65799;SDS011;52544;48.116;11.660;2023-08-24T01:20:06;13.90;;;9.20;;
65799;SDS011;52544;48.116;11.660;2023-08-24T01:22:44;12.45;;;9.60;;
65799;SDS011;52544;48.116;11.660;2023-08-24T01:25:23;12.50;;;9.05;;
65799;SDS011;52544;48.116;11.660;2023-08-24T01:27:57;11.25;;;9.15;;
65799;SDS011;52544;48.116;11.660;2023-08-24T01:30:24;14.30;;;9.13;;
65799;SDS011;52544;48.116;11.660;2023-08-24T01:32:51;14.60;;;9.45;;
65799;SDS011;52544;48.116;11.660;2023-08-24T01:35:16;14.05;;;9.65;;
65799;SDS011;52544;48.116;11.660;2023-08-24T01:37:42;16.33;;;9.32;;
65799;SDS011;52544;48.116;11.660;2023-08-24T01:40:17;12.65;;;9.15;;
65799;SDS011;52544;48.116;11.660;2023-08-24T01:42:52;11.40;;;8.63;;
65799;SDS011;52544;48.116;11.660;2023-08-24T01:45:22;11.90;;;8.98;;
65799;SDS011;52544;48.116;11.660;2023-08-24T01:47:49;11.35;;;8.88;;
65799;SDS011;52544;48.116;11.660;2023-08-24T01:50:17;14.57;;;9.18;;
65799;SDS011;52544;48.116;11.660;2023-08-24T01:52:43;13.70;;;9.73;;
65799;SDS011;52544;48.116;11.660;2023-08-24T01:55:08;11.68;;;9.43;;
65799;SDS011;52544;48.116;11.660;2023-08-24T01:57:34;11.60;;;8.85;;
65799;SDS011;52544;48.116;11.660;2023-08-24T01:59:59;12.25;;;9.10;;
65799;SDS011;52544;48.116;11.660;2023-08-24T02:02:25;12.85;;;9.07;;
65799;SDS011;52544;48.116;11.660;2023-08-24T02:04:50;12.82;;;9.80;;
65799;SDS011;52544;48.116;11.660;2023-08-24T02:07:16;13.63;;;10.10;;
65799;SDS011;52544;48.116;11.660;2023-08-24T02:09:41;12.20;;;9.65;;
65799;SDS011;52544;48.116;11.660;2023-08-24T02:12:07;14.48;;;10.38;;
65799;SDS011;52544;48.116;11.660;2023-08-24T02:14:32;14.57;;;10.25;;
65799;SDS011;52544;48.116;11.660;2023-08-24T02:16:58;13.48;;;9.65;;
65799;SDS011;52544;48.116;11.660;2023-08-24T02:19:23;17.20;;;9.52;;
65799;SDS011;52544;48.116;11.660;2023-08-24T02:21:48;12.50;;;10.00;;
65799;SDS011;52544;48.116;11.660;2023-08-24T02:24:14;14.98;;;10.80;;
65799;SDS011;52544;48.116;11.660;2023-08-24T02:26:39;14.95;;;10.45;;
65799;SDS011;52544;48.116;11.660;2023-08-24T02:29:05;14.60;;;10.57;;
65799;SDS011;52544;48.116;11.660;2023-08-24T02:31:31;11.20;;;9.73;;
65799;SDS011;52544;48.116;11.660;2023-08-24T02:33:56;13.23;;;10.95;;
65799;SDS011;52544;48.116;11.660;2023-08-24T02:36:22;14.23;;;9.80;;
65799;SDS011;52544;48.116;11.660;2023-08-24T02:38:47;13.05;;;10.15;;
65799;SDS011;52544;48.116;11.660;2023-08-24T02:41:12;14.38;;;10.75;;
65799;SDS011;52544;48.116;11.660;2023-08-24T02:43:39;14.82;;;10.32;;
65799;SDS011;52544;48.116;11.660;2023-08-24T02:46:05;13.15;;;10.13;;
65799;SDS011;52544;48.116;11.660;2023-08-24T02:48:33;16.02;;;10.77;;
65799;SDS011;52544;48.116;11.660;2023-08-24T02:50:59;14.63;;;10.93;;
65799;SDS011;52544;48.116;11.660;2023-08-24T02:53:25;15.95;;;10.90;;
65799;SDS011;52544;48.116;11.660;2023-08-24T02:55:51;16.52;;;10.52;;
65799;SDS011;52544;48.116;11.660;2023-08-24T02:58:16;15.13;;;10.20;;
65799;SDS011;52544;48.116;11.660;2023-08-24T03:00:42;12.90;;;9.93;;
65799;SDS011;52544;48.116;11.660;2023-08-24T03:03:07;12.82;;;9.85;;
65799;SDS011;52544;48.116;11.660;2023-08-24T03:05:33;15.95;;;10.52;;
65799;SDS011;52544;48.116;11.660;2023-08-24T03:07:58;18.20;;;10.45;;
65799;SDS011;52544;48.116;11.660;2023-08-24T03:10:24;13.35;;;10.10;;
65799;SDS011;52544;48.116;11.660;2023-08-24T03:12:49;21.27;;;10.15;;
65799;SDS011;52544;48.116;11.660;2023-08-24T03:15:15;20.70;;;10.57;;
65799;SDS011;52544;48.116;11.660;2023-08-24T03:17:41;12.98;;;10.48;;
65799;SDS011;52544;48.116;11.660;2023-08-24T03:20:07;15.45;;;10.57;;
65799;SDS011;52544;48.116;11.660;2023-08-24T03:22:33;14.30;;;10.32;;
65799;SDS011;52544;48.116;11.660;2023-08-24T03:24:59;12.57;;;10.13;;
65799;SDS011;52544;48.116;11.660;2023-08-24T03:27:24;13.30;;;10.35;;
65799;SDS011;52544;48.116;11.660;2023-08-24T03:29:51;13.82;;;9.45;;
65799;SDS011;52544;48.116;11.660;2023-08-24T03:32:17;12.60;;;10.25;;
65799;SDS011;52544;48.116;11.660;2023-08-24T03:34:42;15.43;;;10.43;;
65799;SDS011;52544;48.116;11.660;2023-08-24T03:37:07;14.55;;;10.30;;
65799;SDS011;52544;48.116;11.660;2023-08-24T03:39:33;14.40;;;10.27;;
65799;SDS011;52544;48.116;11.660;2023-08-24T03:42:01;17.38;;;11.05;;
65799;SDS011;52544;48.116;11.660;2023-08-24T03:44:26;14.75;;;11.23;;
65799;SDS011;52544;48.116;11.660;2023-08-24T03:46:52;13.70;;;10.95;;
65799;SDS011;52544;48.116;11.660;2023-08-24T03:49:17;16.92;;;10.95;;
65799;SDS011;52544;48.116;11.660;2023-08-24T03:51:42;19.65;;;11.73;;
65799;SDS011;52544;48.116;11.660;2023-08-24T03:54:08;17.48;;;11.20;;
65799;SDS011;52544;48.116;11.660;2023-08-24T03:56:33;17.27;;;11.45;;
65799;SDS011;52544;48.116;11.660;2023-08-24T03:58:59;17.08;;;11.77;;
65799;SDS011;52544;48.116;11.660;2023-08-24T04:01:24;16.85;;;11.15;;
65799;SDS011;52544;48.116;11.660;2023-08-24T04:03:49;15.38;;;11.02;;
65799;SDS011;52544;48.116;11.660;2023-08-24T04:06:17;16.00;;;10.75;;
65799;SDS011;52544;48.116;11.660;2023-08-24T04:08:44;17.00;;;10.55;;
65799;SDS011;52544;48.116;11.660;2023-08-24T04:11:10;13.23;;;10.35;;
65799;SDS011;52544;48.116;11.660;2023-08-24T04:13:35;17.88;;;10.63;;
65799;SDS011;52544;48.116;11.660;2023-08-24T04:16:01;12.77;;;9.48;;
65799;SDS011;52544;48.116;11.660;2023-08-24T04:18:26;16.50;;;11.00;;
65799;SDS011;52544;48.116;11.660;2023-08-24T04:20:52;13.50;;;9.90;;
65799;SDS011;52544;48.116;11.660;2023-08-24T04:23:23;16.27;;;11.27;;
65799;SDS011;52544;48.116;11.660;2023-08-24T04:25:52;12.88;;;10.55;;
65799;SDS011;52544;48.116;11.660;2023-08-24T04:28:18;14.32;;;9.80;;
65799;SDS011;52544;48.116;11.660;2023-08-24T04:30:51;14.38;;;10.18;;
65799;SDS011;52544;48.116;11.660;2023-08-24T04:33:21;15.30;;;9.27;;
65799;SDS011;52544;48.116;11.660;2023-08-24T04:35:47;13.25;;;10.15;;
65799;SDS011;52544;48.116;11.660;2023-08-24T04:38:13;13.30;;;10.43;;
65799;SDS011;52544;48.116;11.660;2023-08-24T04:41:11;14.73;;;11.18;;
65799;SDS011;52544;48.116;11.660;2023-08-24T04:43:32;14.55;;;10.02;;
65799;SDS011;52544;48.116;11.660;2023-08-24T04:45:58;17.40;;;11.57;;
65799;SDS011;52544;48.116;11.660;2023-08-24T04:48:24;15.00;;;11.18;;
65799;SDS011;52544;48.116;11.660;2023-08-24T04:50:51;17.50;;;10.77;;
65799;SDS011;52544;48.116;11.660;2023-08-24T04:53:18;17.23;;;10.90;;
65799;SDS011;52544;48.116;11.660;2023-08-24T04:55:44;13.20;;;10.35;;
65799;SDS011;52544;48.116;11.660;2023-08-24T04:58:10;16.55;;;11.30;;
65799;SDS011;52544;48.116;11.660;2023-08-24T05:00:37;15.70;;;11.00;;
65799;SDS011;52544;48.116;11.660;2023-08-24T05:03:03;13.60;;;10.68;;
65799;SDS011;52544;48.116;11.660;2023-08-24T05:05:29;13.77;;;10.65;;
65799;SDS011;52544;48.116;11.660;2023-08-24T05:07:56;14.20;;;11.00;;
65799;SDS011;52544;48.116;11.660;2023-08-24T05:10:22;15.88;;;11.52;;
65799;SDS011;52544;48.116;11.660;2023-08-24T05:12:48;18.55;;;11.77;;
65799;SDS011;52544;48.116;11.660;2023-08-24T05:15:13;19.27;;;11.45;;
65799;SDS011;52544;48.116;11.660;2023-08-24T05:17:39;17.73;;;12.70;;
65799;SDS011;52544;48.116;11.660;2023-08-24T05:20:05;20.80;;;12.10;;
65799;SDS011;52544;48.116;11.660;2023-08-24T05:22:33;18.48;;;12.32;;
65799;SDS011;52544;48.116;11.660;2023-08-24T05:24:58;15.45;;;11.68;;
65799;SDS011;52544;48.116;11.660;2023-08-24T05:27:23;16.63;;;11.90;;
65799;SDS011;52544;48.116;11.660;2023-08-24T05:29:49;16.63;;;12.52;;
65799;SDS011;52544;48.116;11.660;2023-08-24T05:32:14;18.48;;;12.38;;
65799;SDS011;52544;48.116;11.660;2023-08-24T05:34:39;19.63;;;14.15;;
65799;SDS011;52544;48.116;11.660;2023-08-24T05:37:05;20.25;;;13.43;;
65799;SDS011;52544;48.116;11.660;2023-08-24T05:39:30;17.98;;;12.23;;
65799;SDS011;52544;48.116;11.660;2023-08-24T05:41:56;24.30;;;12.35;;
65799;SDS011;52544;48.116;11.660;2023-08-24T05:44:21;17.58;;;13.07;;
65799;SDS011;52544;48.116;11.660;2023-08-24T05:46:47;19.65;;;12.65;;
65799;SDS011;52544;48.116;11.660;2023-08-24T05:49:13;22.30;;;13.88;;
65799;SDS011;52544;48.116;11.660;2023-08-24T05:51:38;22.15;;;13.98;;
65799;SDS011;52544;48.116;11.660;2023-08-24T05:54:04;23.80;;;13.45;;
65799;SDS011;52544;48.116;11.660;2023-08-24T05:56:30;19.70;;;12.40;;
65799;SDS011;52544;48.116;11.660;2023-08-24T05:58:56;16.80;;;11.80;;
65799;SDS011;52544;48.116;11.660;2023-08-24T06:01:25;17.48;;;11.82;;
65799;SDS011;52544;48.116;11.660;2023-08-24T06:03:50;27.38;;;12.88;;
65799;SDS011;52544;48.116;11.660;2023-08-24T06:06:16;21.77;;;12.95;;
65799;SDS011;52544;48.116;11.660;2023-08-24T06:08:42;19.95;;;14.10;;
65799;SDS011;52544;48.116;11.660;2023-08-24T06:11:07;18.30;;;12.48;;
65799;SDS011;52544;48.116;11.660;2023-08-24T06:13:33;22.20;;;13.30;;
65799;SDS011;52544;48.116;11.660;2023-08-24T06:15:58;18.52;;;12.40;;
65799;SDS011;52544;48.116;11.660;2023-08-24T06:18:24;19.45;;;12.68;;
65799;SDS011;52544;48.116;11.660;2023-08-24T06:20:49;19.33;;;12.07;;
65799;SDS011;52544;48.116;11.660;2023-08-24T06:23:18;14.23;;;10.80;;
65799;SDS011;52544;48.116;11.660;2023-08-24T06:25:43;14.95;;;10.70;;
65799;SDS011;52544;48.116;11.660;2023-08-24T06:28:10;13.98;;;11.00;;
65799;SDS011;52544;48.116;11.660;2023-08-24T06:30:37;20.08;;;11.60;;
65799;SDS011;52544;48.116;11.660;2023-08-24T06:33:08;19.65;;;11.95;;
65799;SDS011;52544;48.116;11.660;2023-08-24T06:35:33;14.60;;;10.90;;
65799;SDS011;52544;48.116;11.660;2023-08-24T06:38:00;18.67;;;11.95;;
65799;SDS011;52544;48.116;11.660;2023-08-24T06:40:25;16.45;;;11.30;;
65799;SDS011;52544;48.116;11.660;2023-08-24T06:42:51;14.90;;;10.50;;
65799;SDS011;52544;48.116;11.660;2023-08-24T06:45:16;15.80;;;11.20;;
65799;SDS011;52544;48.116;11.660;2023-08-24T06:47:43;14.85;;;10.18;;
65799;SDS011;52544;48.116;11.660;2023-08-24T06:50:09;15.30;;;10.48;;
65799;SDS011;52544;48.116;11.660;2023-08-24T06:52:35;16.52;;;10.13;;
65799;SDS011;52544;48.116;11.660;2023-08-24T06:55:01;17.10;;;9.70;;
65799;SDS011;52544;48.116;11.660;2023-08-24T06:57:26;16.23;;;10.07;;
65799;SDS011;52544;48.116;11.660;2023-08-24T06:59:52;19.80;;;9.95;;
65799;SDS011;52544;48.116;11.660;2023-08-24T07:02:17;14.45;;;10.27;;
65799;SDS011;52544;48.116;11.660;2023-08-24T07:04:43;15.57;;;11.38;;
65799;SDS011;52544;48.116;11.660;2023-08-24T07:07:09;14.77;;;9.25;;
65799;SDS011;52544;48.116;11.660;2023-08-24T07:09:35;14.57;;;10.05;;
65799;SDS011;52544;48.116;11.660;2023-08-24T07:12:01;13.13;;;9.80;;
65799;SDS011;52544;48.116;11.660;2023-08-24T07:14:28;14.27;;;9.95;;
65799;SDS011;52544;48.116;11.660;2023-08-24T07:16:53;16.73;;;9.43;;
65799;SDS011;52544;48.116;11.660;2023-08-24T07:19:19;17.35;;;10.07;;
65799;SDS011;52544;48.116;11.660;2023-08-24T07:21:44;12.73;;;9.35;;
65799;SDS011;52544;48.116;11.660;2023-08-24T07:24:10;11.40;;;8.70;;
65799;SDS011;52544;48.116;11.660;2023-08-24T07:26:36;12.75;;;9.20;;
65799;SDS011;52544;48.116;11.660;2023-08-24T07:29:01;15.13;;;9.57;;
65799;SDS011;52544;48.116;11.660;2023-08-24T07:31:26;13.02;;;8.70;;
65799;SDS011;52544;48.116;11.660;2023-08-24T07:33:52;13.55;;;9.40;;
65799;SDS011;52544;48.116;11.660;2023-08-24T07:36:17;12.95;;;9.38;;
65799;SDS011;52544;48.116;11.660;2023-08-24T07:38:44;15.90;;;10.13;;
65799;SDS011;52544;48.116;11.660;2023-08-24T07:41:11;14.93;;;9.70;;
65799;SDS011;52544;48.116;11.660;2023-08-24T07:43:37;16.38;;;8.95;;
65799;SDS011;52544;48.116;11.660;2023-08-24T07:46:02;18.23;;;9.93;;
65799;SDS011;52544;48.116;11.660;2023-08-24T07:48:28;15.35;;;9.18;;
65799;SDS011;52544;48.116;11.660;2023-08-24T07:50:53;18.88;;;10.60;;
65799;SDS011;52544;48.116;11.660;2023-08-24T07:53:19;14.98;;;9.25;;
65799;SDS011;52544;48.116;11.660;2023-08-24T07:55:44;11.13;;;8.85;;
65799;SDS011;52544;48.116;11.660;2023-08-24T07:58:11;14.23;;;9.52;;
65799;SDS011;52544;48.116;11.660;2023-08-24T08:00:37;13.77;;;8.95;;
65799;SDS011;52544;48.116;11.660;2023-08-24T08:03:03;13.07;;;9.35;;
65799;SDS011;52544;48.116;11.660;2023-08-24T08:05:28;21.27;;;10.25;;
65799;SDS011;52544;48.116;11.660;2023-08-24T08:07:54;12.25;;;8.55;;
65799;SDS011;52544;48.116;11.660;2023-08-24T08:10:19;20.23;;;9.88;;
65799;SDS011;52544;48.116;11.660;2023-08-24T08:12:46;21.67;;;12.30;;
65799;SDS011;52544;48.116;11.660;2023-08-24T08:15:11;16.38;;;11.13;;
65799;SDS011;52544;48.116;11.660;2023-08-24T08:17:37;25.65;;;13.38;;
65799;SDS011;52544;48.116;11.660;2023-08-24T08:20:02;14.30;;;10.00;;
65799;SDS011;52544;48.116;11.660;2023-08-24T08:22:28;16.33;;;10.32;;
65799;SDS011;52544;48.116;11.660;2023-08-24T08:24:54;16.33;;;9.85;;
65799;SDS011;52544;48.116;11.660;2023-08-24T08:27:21;15.60;;;9.73;;
65799;SDS011;52544;48.116;11.660;2023-08-24T08:29:47;13.45;;;9.38;;
65799;SDS011;52544;48.116;11.660;2023-08-24T08:32:13;17.42;;;10.52;;
65799;SDS011;52544;48.116;11.660;2023-08-24T08:34:38;17.02;;;9.82;;
65799;SDS011;52544;48.116;11.660;2023-08-24T08:37:04;19.15;;;9.32;;
65799;SDS011;52544;48.116;11.660;2023-08-24T08:39:30;16.05;;;9.75;;
65799;SDS011;52544;48.116;11.660;2023-08-24T08:41:57;15.07;;;9.38;;
65799;SDS011;52544;48.116;11.660;2023-08-24T08:44:22;11.57;;;8.80;;
65799;SDS011;52544;48.116;11.660;2023-08-24T08:46:49;13.68;;;8.80;;
65799;SDS011;52544;48.116;11.660;2023-08-24T08:49:14;12.02;;;8.80;;
65799;SDS011;52544;48.116;11.660;2023-08-24T08:51:42;13.02;;;9.30;;
65799;SDS011;52544;48.116;11.660;2023-08-24T08:54:08;15.38;;;9.55;;
65799;SDS011;52544;48.116;11.660;2023-08-24T08:56:34;13.18;;;9.02;;
65799;SDS011;52544;48.116;11.660;2023-08-24T08:59:00;11.57;;;8.63;;
65799;SDS011;52544;48.116;11.660;2023-08-24T09:01:27;16.92;;;9.13;;
65799;SDS011;52544;48.116;11.660;2023-08-24T09:03:53;11.77;;;9.27;;
65799;SDS011;52544;48.116;11.660;2023-08-24T09:06:19;11.18;;;8.15;;
65799;SDS011;52544;48.116;11.660;2023-08-24T09:08:45;15.40;;;8.95;;
65799;SDS011;52544;48.116;11.660;2023-08-24T09:11:12;17.83;;;9.30;;
65799;SDS011;52544;48.116;11.660;2023-08-24T09:13:38;12.15;;;9.15;;
65799;SDS011;52544;48.116;11.660;2023-08-24T09:16:04;15.07;;;8.52;;
65799;SDS011;52544;48.116;11.660;2023-08-24T09:18:38;12.43;;;8.50;;
65799;SDS011;52544;48.116;11.660;2023-08-24T09:21:11;12.20;;;8.48;;
65799;SDS011;52544;48.116;11.660;2023-08-24T09:23:44;12.57;;;8.95;;
65799;SDS011;52544;48.116;11.660;2023-08-24T09:26:11;15.38;;;9.00;;
65799;SDS011;52544;48.116;11.660;2023-08-24T09:28:37;12.93;;;8.60;;
65799;SDS011;52544;48.116;11.660;2023-08-24T09:31:04;18.42;;;9.13;;
65799;SDS011;52544;48.116;11.660;2023-08-24T09:33:30;14.52;;;9.35;;
65799;SDS011;52544;48.116;11.660;2023-08-24T09:35:55;13.93;;;8.45;;
65799;SDS011;52544;48.116;11.660;2023-08-24T09:38:26;13.07;;;8.38;;
65799;SDS011;52544;48.116;11.660;2023-08-24T09:40:55;12.73;;;8.75;;
65799;SDS011;52544;48.116;11.660;2023-08-24T09:43:21;13.68;;;8.18;;
65799;SDS011;52544;48.116;11.660;2023-08-24T09:45:51;12.43;;;8.13;;
65799;SDS011;52544;48.116;11.660;2023-08-24T09:48:21;14.23;;;8.38;;
65799;SDS011;52544;48.116;11.660;2023-08-24T09:50:49;11.48;;;7.10;;
65799;SDS011;52544;48.116;11.660;2023-08-24T09:53:20;15.93;;;8.23;;
65799;SDS011;52544;48.116;11.660;2023-08-24T09:55:54;11.52;;;7.63;;
65799;SDS011;52544;48.116;11.660;2023-08-24T09:58:28;13.68;;;8.35;;
65799;SDS011;52544;48.116;11.660;2023-08-24T10:00:54;13.82;;;8.13;;
65799;SDS011;52544;48.116;11.660;2023-08-24T10:03:24;9.52;;;7.35;;
65799;SDS011;52544;48.116;11.660;2023-08-24T10:05:54;11.43;;;7.65;;
65799;SDS011;52544;48.116;11.660;2023-08-24T10:08:33;12.77;;;7.65;;
65799;SDS011;52544;48.116;11.660;2023-08-24T10:11:01;10.73;;;7.47;;
65799;SDS011;52544;48.116;11.660;2023-08-24T10:14:12;14.05;;;8.05;;
65799;SDS011;52544;48.116;11.660;2023-08-24T10:16:18;10.52;;;8.23;;
65799;SDS011;52544;48.116;11.660;2023-08-24T10:18:45;12.80;;;7.13;;
65799;SDS011;52544;48.116;11.660;2023-08-24T10:21:12;9.52;;;6.75;;
65799;SDS011;52544;48.116;11.660;2023-08-24T10:23:38;10.48;;;6.63;;
65799;SDS011;52544;48.116;11.660;2023-08-24T10:26:05;9.95;;;6.93;;
65799;SDS011;52544;48.116;11.660;2023-08-24T10:28:32;11.57;;;7.03;;
65799;SDS011;52544;48.116;11.660;2023-08-24T10:30:58;10.55;;;7.00;;
65799;SDS011;52544;48.116;11.660;2023-08-24T10:33:24;7.47;;;5.88;;
65799;SDS011;52544;48.116;11.660;2023-08-24T10:35:51;10.15;;;6.70;;
65799;SDS011;52544;48.116;11.660;2023-08-24T10:38:27;10.70;;;7.00;;
65799;SDS011;52544;48.116;11.660;2023-08-24T10:40:54;11.35;;;7.18;;
65799;SDS011;52544;48.116;11.660;2023-08-24T10:43:28;8.52;;;6.05;;
65799;SDS011;52544;48.116;11.660;2023-08-24T10:45:54;11.88;;;6.55;;
65799;SDS011;52544;48.116;11.660;2023-08-24T10:48:27;9.23;;;6.30;;
65799;SDS011;52544;48.116;11.660;2023-08-24T10:51:39;12.43;;;5.45;;
65799;SDS011;52544;48.116;11.660;2023-08-24T10:54:00;7.28;;;5.47;;
65799;SDS011;52544;48.116;11.660;2023-08-24T10:56:38;14.15;;;7.13;;
65799;SDS011;52544;48.116;11.660;2023-08-24T10:59:14;10.70;;;5.97;;
65799;SDS011;52544;48.116;11.660;2023-08-24T11:04:17;12.00;;;4.90;;
65799;SDS011;52544;48.116;11.660;2023-08-24T11:09:18;9.10;;;5.22;;
65799;SDS011;52544;48.116;11.660;2023-08-24T11:11:54;13.02;;;4.80;;
65799;SDS011;52544;48.116;11.660;2023-08-24T11:14:22;12.20;;;3.90;;
65799;SDS011;52544;48.116;11.660;2023-08-24T11:16:50;7.32;;;3.30;;
65799;SDS011;52544;48.116;11.660;2023-08-24T11:19:16;7.50;;;4.38;;
65799;SDS011;52544;48.116;11.660;2023-08-24T11:21:45;13.73;;;4.78;;
65799;SDS011;52544;48.116;11.660;2023-08-24T11:24:14;11.35;;;6.30;;
65799;SDS011;52544;48.116;11.660;2023-08-24T11:26:45;10.85;;;5.22;;
65799;SDS011;52544;48.116;11.660;2023-08-24T11:29:12;11.68;;;5.20;;
65799;SDS011;52544;48.116;11.660;2023-08-24T11:31:38;9.00;;;4.22;;
65799;SDS011;52544;48.116;11.660;2023-08-24T11:34:04;11.45;;;4.97;;
65799;SDS011;52544;48.116;11.660;2023-08-24T11:36:40;13.68;;;5.97;;
65799;SDS011;52544;48.116;11.660;2023-08-24T11:39:29;9.25;;;5.80;;
65799;SDS011;52544;48.116;11.660;2023-08-24T11:42:00;7.47;;;4.22;;
65799;SDS011;52544;48.116;11.660;2023-08-24T11:44:32;9.27;;;4.95;;
65799;SDS011;52544;48.116;11.660;2023-08-24T11:47:11;11.52;;;4.03;;
65799;SDS011;52544;48.116;11.660;2023-08-24T11:49:36;5.35;;;4.25;;
65799;SDS011;52544;48.116;11.660;2023-08-24T11:52:02;8.65;;;4.03;;
65799;SDS011;52544;48.116;11.660;2023-08-24T11:54:28;6.63;;;3.50;;
65799;SDS011;52544;48.116;11.660;2023-08-24T11:56:53;9.00;;;4.10;;
65799;SDS011;52544;48.116;11.660;2023-08-24T11:59:19;12.20;;;4.38;;
65799;SDS011;52544;48.116;11.660;2023-08-24T12:01:45;13.25;;;4.10;;
65799;SDS011;52544;48.116;11.660;2023-08-24T12:04:12;9.48;;;3.80;;
65799;SDS011;52544;48.116;11.660;2023-08-24T12:06:37;8.43;;;3.95;;
65799;SDS011;52544;48.116;11.660;2023-08-24T12:09:05;7.40;;;4.32;;
65799;SDS011;52544;48.116;11.660;2023-08-24T12:11:34;8.60;;;4.28;;
65799;SDS011;52544;48.116;11.660;2023-08-24T12:14:01;10.40;;;4.43;;
65799;SDS011;52544;48.116;11.660;2023-08-24T12:16:30;7.97;;;4.20;;
65799;SDS011;52544;48.116;11.660;2023-08-24T12:18:59;10.38;;;4.28;;
65799;SDS011;52544;48.116;11.660;2023-08-24T12:21:28;9.73;;;3.97;;
65799;SDS011;52544;48.116;11.660;2023-08-24T12:24:01;8.82;;;3.58;;
65799;SDS011;52544;48.116;11.660;2023-08-24T12:26:31;10.95;;;4.53;;
65799;SDS011;52544;48.116;11.660;2023-08-24T12:29:00;9.15;;;5.00;;
65799;SDS011;52544;48.116;11.660;2023-08-24T12:31:28;13.48;;;5.10;;
65799;SDS011;52544;48.116;11.660;2023-08-24T12:36:27;10.57;;;4.78;;
65799;SDS011;52544;48.116;11.660;2023-08-24T12:38:52;11.80;;;4.53;;
65799;SDS011;52544;48.116;11.660;2023-08-24T12:41:18;16.58;;;4.18;;
65799;SDS011;52544;48.116;11.660;2023-08-24T12:43:43;16.33;;;4.30;;
65799;SDS011;52544;48.116;11.660;2023-08-24T12:46:09;13.45;;;3.95;;
65799;SDS011;52544;48.116;11.660;2023-08-24T12:48:34;12.77;;;4.70;;
65799;SDS011;52544;48.116;11.660;2023-08-24T12:51:00;22.50;;;5.10;;
65799;SDS011;52544;48.116;11.660;2023-08-24T12:53:25;14.60;;;4.18;;
65799;SDS011;52544;48.116;11.660;2023-08-24T12:55:50;12.10;;;3.95;;
65799;SDS011;52544;48.116;11.660;2023-08-24T12:58:16;10.70;;;4.43;;
65799;SDS011;52544;48.116;11.660;2023-08-24T13:00:41;10.93;;;5.07;;
65799;SDS011;52544;48.116;11.660;2023-08-24T13:03:06;12.02;;;4.88;;
65799;SDS011;52544;48.116;11.660;2023-08-24T13:05:32;11.88;;;4.95;;
65799;SDS011;52544;48.116;11.660;2023-08-24T13:07:58;13.68;;;5.45;;
65799;SDS011;52544;48.116;11.660;2023-08-24T13:10:23;8.23;;;4.93;;
65799;SDS011;52544;48.116;11.660;2023-08-24T13:12:50;9.85;;;4.43;;
65799;SDS011;52544;48.116;11.660;2023-08-24T13:15:15;11.57;;;4.75;;
65799;SDS011;52544;48.116;11.660;2023-08-24T13:17:41;15.55;;;5.10;;
65799;SDS011;52544;48.116;11.660;2023-08-24T13:20:06;14.10;;;5.18;;
65799;SDS011;52544;48.116;11.660;2023-08-24T13:22:33;11.98;;;5.07;;
65799;SDS011;52544;48.116;11.660;2023-08-24T13:24:58;14.70;;;4.90;;
65799;SDS011;52544;48.116;11.660;2023-08-24T13:27:23;11.65;;;5.13;;
65799;SDS011;52544;48.116;11.660;2023-08-24T13:29:49;14.95;;;5.30;;
65799;SDS011;52544;48.116;11.660;2023-08-24T13:32:14;13.13;;;5.32;;
65799;SDS011;52544;48.116;11.660;2023-08-24T13:34:40;11.27;;;5.32;;
65799;SDS011;52544;48.116;11.660;2023-08-24T13:37:05;14.45;;;5.60;;
65799;SDS011;52544;48.116;11.660;2023-08-24T13:39:31;10.70;;;5.78;;
65799;SDS011;52544;48.116;11.660;2023-08-24T13:41:59;9.02;;;5.47;;
65799;SDS011;52544;48.116;11.660;2023-08-24T13:44:25;13.23;;;5.38;;
65799;SDS011;52544;48.116;11.660;2023-08-24T13:46:50;8.05;;;5.38;;
65799;SDS011;52544;48.116;11.660;2023-08-24T13:49:17;11.57;;;6.07;;
65799;SDS011;52544;48.116;11.660;2023-08-24T13:51:43;10.55;;;5.45;;
65799;SDS011;52544;48.116;11.660;2023-08-24T13:54:13;11.27;;;5.68;;
65799;SDS011;52544;48.116;11.660;2023-08-24T13:56:40;12.73;;;5.97;;
65799;SDS011;52544;48.116;11.660;2023-08-24T13:59:05;13.07;;;6.47;;
65799;SDS011;52544;48.116;11.660;2023-08-24T14:01:31;14.15;;;5.85;;
65799;SDS011;52544;48.116;11.660;2023-08-24T14:03:56;10.27;;;6.20;;
65799;SDS011;52544;48.116;11.660;2023-08-24T14:06:22;15.13;;;6.25;;
65799;SDS011;52544;48.116;11.660;2023-08-24T14:08:47;15.13;;;6.07;;
65799;SDS011;52544;48.116;11.660;2023-08-24T14:11:13;12.48;;;5.78;;
65799;SDS011;52544;48.116;11.660;2023-08-24T14:13:40;15.60;;;6.15;;
65799;SDS011;52544;48.116;11.660;2023-08-24T14:16:06;13.95;;;6.43;;
65799;SDS011;52544;48.116;11.660;2023-08-24T14:18:32;14.93;;;6.53;;
65799;SDS011;52544;48.116;11.660;2023-08-24T14:20:58;11.13;;;6.40;;
65799;SDS011;52544;48.116;11.660;2023-08-24T14:23:23;8.93;;;6.43;;
65799;SDS011;52544;48.116;11.660;2023-08-24T14:25:48;13.10;;;6.78;;